sensor_id;sensor_type;location;lat;lon;timestamp;P1;durP1;ratioP1;P2;durP2;ratioP2
20118;SDS011;10220;42.716;23.306;2022-07-31T00:01:32;17.95;;;16.20;;
20118;SDS011;10220;42.716;23.306;2022-07-31T00:03:58;17.83;;;16.17;;
20118;SDS011;10220;42.716;23.306;2022-07-31T00:06:24;21.30;;;19.13;;
20118;SDS011;10220;42.716;23.306;2022-07-31T00:08:50;22.85;;;20.65;;
20118;SDS011;10220;42.716;23.306;2022-07-31T00:11:15;22.55;;;20.38;;
20118;SDS011;10220;42.716;23.306;2022-07-31T00:13:41;24.67;;;22.40;;
20118;SDS011;10220;42.716;23.306;2022-07-31T00:16:06;27.90;;;25.25;;
20118;SDS011;10220;42.716;23.306;2022-07-31T00:18:32;28.08;;;24.98;;
20118;SDS011;10220;42.716;23.306;2022-07-31T00:20:59;27.58;;;24.58;;
20118;SDS011;10220;42.716;23.306;2022-07-31T00:23:25;23.20;;;20.88;;
20118;SDS011;10220;42.716;23.306;2022-07-31T00:25:50;26.33;;;23.73;;
20118;SDS011;10220;42.716;23.306;2022-07-31T00:28:16;24.92;;;22.45;;
20118;SDS011;10220;42.716;23.306;2022-07-31T00:30:41;24.08;;;21.85;;
20118;SDS011;10220;42.716;23.306;2022-07-31T00:33:06;24.17;;;21.75;;
20118;SDS011;10220;42.716;23.306;2022-07-31T00:35:32;23.75;;;21.27;;
20118;SDS011;10220;42.716;23.306;2022-07-31T00:37:57;24.63;;;22.10;;
20118;SDS011;10220;42.716;23.306;2022-07-31T00:40:23;22.20;;;20.15;;
20118;SDS011;10220;42.716;23.306;2022-07-31T00:42:48;21.55;;;19.45;;
20118;SDS011;10220;42.716;23.306;2022-07-31T00:45:14;21.05;;;19.05;;
20118;SDS011;10220;42.716;23.306;2022-07-31T00:47:40;21.00;;;19.10;;
20118;SDS011;10220;42.716;23.306;2022-07-31T00:50:06;23.67;;;20.02;;
20118;SDS011;10220;42.716;23.306;2022-07-31T00:52:32;20.90;;;19.00;;
20118;SDS011;10220;42.716;23.306;2022-07-31T00:54:57;21.48;;;19.40;;
20118;SDS011;10220;42.716;23.306;2022-07-31T00:57:23;21.15;;;19.05;;
20118;SDS011;10220;42.716;23.306;2022-07-31T00:59:48;21.52;;;19.27;;
20118;SDS011;10220;42.716;23.306;2022-07-31T01:02:14;22.83;;;20.55;;
20118;SDS011;10220;42.716;23.306;2022-07-31T01:04:39;24.33;;;21.90;;
20118;SDS011;10220;42.716;23.306;2022-07-31T01:07:05;22.38;;;20.27;;
20118;SDS011;10220;42.716;23.306;2022-07-31T01:09:30;24.00;;;21.77;;
20118;SDS011;10220;42.716;23.306;2022-07-31T01:12:05;23.70;;;21.45;;
20118;SDS011;10220;42.716;23.306;2022-07-31T01:14:40;26.30;;;23.70;;
20118;SDS011;10220;42.716;23.306;2022-07-31T01:17:11;27.02;;;24.20;;
20118;SDS011;10220;42.716;23.306;2022-07-31T01:19:42;27.00;;;24.20;;
20118;SDS011;10220;42.716;23.306;2022-07-31T01:27:22;25.98;;;23.23;;
20118;SDS011;10220;42.716;23.306;2022-07-31T01:29:55;26.23;;;23.60;;
20118;SDS011;10220;42.716;23.306;2022-07-31T01:32:28;28.25;;;25.52;;
20118;SDS011;10220;42.716;23.306;2022-07-31T01:35:14;30.23;;;27.30;;
20118;SDS011;10220;42.716;23.306;2022-07-31T01:37:41;30.95;;;27.00;;
20118;SDS011;10220;42.716;23.306;2022-07-31T01:40:13;25.20;;;22.70;;
20118;SDS011;10220;42.716;23.306;2022-07-31T01:42:46;23.15;;;20.85;;
20118;SDS011;10220;42.716;23.306;2022-07-31T01:45:15;23.65;;;21.35;;
20118;SDS011;10220;42.716;23.306;2022-07-31T01:47:43;22.92;;;20.58;;
20118;SDS011;10220;42.716;23.306;2022-07-31T01:50:11;22.17;;;19.73;;
20118;SDS011;10220;42.716;23.306;2022-07-31T01:52:37;23.17;;;20.88;;
20118;SDS011;10220;42.716;23.306;2022-07-31T01:55:04;22.55;;;20.35;;
20118;SDS011;10220;42.716;23.306;2022-07-31T01:57:33;22.25;;;20.00;;
20118;SDS011;10220;42.716;23.306;2022-07-31T02:00:02;22.80;;;20.70;;
20118;SDS011;10220;42.716;23.306;2022-07-31T02:02:31;23.95;;;21.58;;
20118;SDS011;10220;42.716;23.306;2022-07-31T02:04:59;24.92;;;22.42;;
20118;SDS011;10220;42.716;23.306;2022-07-31T02:07:33;24.48;;;21.92;;
20118;SDS011;10220;42.716;23.306;2022-07-31T02:10:00;22.73;;;20.17;;
20118;SDS011;10220;42.716;23.306;2022-07-31T02:12:28;22.35;;;20.05;;
20118;SDS011;10220;42.716;23.306;2022-07-31T02:14:54;21.73;;;19.63;;
20118;SDS011;10220;42.716;23.306;2022-07-31T02:17:20;22.00;;;19.80;;
20118;SDS011;10220;42.716;23.306;2022-07-31T02:19:47;21.83;;;19.77;;
20118;SDS011;10220;42.716;23.306;2022-07-31T02:22:15;21.90;;;19.85;;
20118;SDS011;10220;42.716;23.306;2022-07-31T02:24:41;23.17;;;20.73;;
20118;SDS011;10220;42.716;23.306;2022-07-31T02:27:06;21.67;;;19.60;;
20118;SDS011;10220;42.716;23.306;2022-07-31T02:29:34;25.40;;;21.15;;
20118;SDS011;10220;42.716;23.306;2022-07-31T02:32:00;23.98;;;21.40;;
20118;SDS011;10220;42.716;23.306;2022-07-31T02:34:27;22.63;;;20.38;;
20118;SDS011;10220;42.716;23.306;2022-07-31T02:36:54;20.95;;;18.83;;
20118;SDS011;10220;42.716;23.306;2022-07-31T02:39:21;21.38;;;19.17;;
20118;SDS011;10220;42.716;23.306;2022-07-31T02:41:48;21.10;;;19.00;;
20118;SDS011;10220;42.716;23.306;2022-07-31T02:44:15;21.00;;;18.67;;
20118;SDS011;10220;42.716;23.306;2022-07-31T02:46:41;20.05;;;18.05;;
20118;SDS011;10220;42.716;23.306;2022-07-31T02:49:08;20.60;;;18.75;;
20118;SDS011;10220;42.716;23.306;2022-07-31T02:51:37;20.23;;;18.33;;
20118;SDS011;10220;42.716;23.306;2022-07-31T02:54:03;19.13;;;17.27;;
20118;SDS011;10220;42.716;23.306;2022-07-31T02:56:29;19.77;;;17.88;;
20118;SDS011;10220;42.716;23.306;2022-07-31T02:58:57;21.60;;;19.33;;
20118;SDS011;10220;42.716;23.306;2022-07-31T03:01:22;20.77;;;18.58;;
20118;SDS011;10220;42.716;23.306;2022-07-31T03:03:48;20.40;;;18.42;;
20118;SDS011;10220;42.716;23.306;2022-07-31T03:06:14;21.05;;;18.90;;
20118;SDS011;10220;42.716;23.306;2022-07-31T03:08:40;22.60;;;19.20;;
20118;SDS011;10220;42.716;23.306;2022-07-31T03:11:06;20.38;;;18.45;;
20118;SDS011;10220;42.716;23.306;2022-07-31T03:13:32;20.13;;;18.02;;
20118;SDS011;10220;42.716;23.306;2022-07-31T03:16:00;19.00;;;17.20;;
20118;SDS011;10220;42.716;23.306;2022-07-31T03:18:27;19.08;;;17.25;;
20118;SDS011;10220;42.716;23.306;2022-07-31T03:20:54;19.38;;;17.40;;
20118;SDS011;10220;42.716;23.306;2022-07-31T03:23:21;18.63;;;16.65;;
20118;SDS011;10220;42.716;23.306;2022-07-31T03:25:50;18.35;;;16.65;;
20118;SDS011;10220;42.716;23.306;2022-07-31T03:28:19;17.33;;;15.63;;
20118;SDS011;10220;42.716;23.306;2022-07-31T03:30:46;20.25;;;18.25;;
20118;SDS011;10220;42.716;23.306;2022-07-31T03:33:15;21.75;;;18.75;;
20118;SDS011;10220;42.716;23.306;2022-07-31T03:35:40;21.05;;;18.98;;
20118;SDS011;10220;42.716;23.306;2022-07-31T03:38:05;20.88;;;18.77;;
20118;SDS011;10220;42.716;23.306;2022-07-31T03:40:31;18.73;;;16.92;;
20118;SDS011;10220;42.716;23.306;2022-07-31T03:42:57;20.67;;;18.52;;
20118;SDS011;10220;42.716;23.306;2022-07-31T03:45:23;20.95;;;18.85;;
20118;SDS011;10220;42.716;23.306;2022-07-31T03:47:50;21.35;;;19.05;;
20118;SDS011;10220;42.716;23.306;2022-07-31T03:50:16;22.95;;;20.73;;
20118;SDS011;10220;42.716;23.306;2022-07-31T03:52:42;23.60;;;21.13;;
20118;SDS011;10220;42.716;23.306;2022-07-31T03:55:11;23.90;;;21.35;;
20118;SDS011;10220;42.716;23.306;2022-07-31T03:57:38;23.92;;;21.33;;
20118;SDS011;10220;42.716;23.306;2022-07-31T04:00:05;23.95;;;20.23;;
20118;SDS011;10220;42.716;23.306;2022-07-31T04:02:32;23.50;;;21.00;;
20118;SDS011;10220;42.716;23.306;2022-07-31T04:04:57;25.35;;;21.60;;
20118;SDS011;10220;42.716;23.306;2022-07-31T04:07:23;24.55;;;21.95;;
20118;SDS011;10220;42.716;23.306;2022-07-31T04:09:48;24.73;;;21.38;;
20118;SDS011;10220;42.716;23.306;2022-07-31T04:12:14;26.73;;;22.27;;
20118;SDS011;10220;42.716;23.306;2022-07-31T04:14:40;25.70;;;22.98;;
20118;SDS011;10220;42.716;23.306;2022-07-31T04:17:05;26.50;;;22.98;;
20118;SDS011;10220;42.716;23.306;2022-07-31T04:19:31;26.70;;;21.75;;
20118;SDS011;10220;42.716;23.306;2022-07-31T04:21:57;27.05;;;22.77;;
20118;SDS011;10220;42.716;23.306;2022-07-31T04:24:23;26.45;;;22.02;;
20118;SDS011;10220;42.716;23.306;2022-07-31T04:26:49;24.60;;;22.00;;
20118;SDS011;10220;42.716;23.306;2022-07-31T04:29:15;23.55;;;21.05;;
20118;SDS011;10220;42.716;23.306;2022-07-31T04:31:40;24.48;;;21.48;;
20118;SDS011;10220;42.716;23.306;2022-07-31T04:34:06;24.40;;;21.80;;
20118;SDS011;10220;42.716;23.306;2022-07-31T04:36:31;25.80;;;20.95;;
20118;SDS011;10220;42.716;23.306;2022-07-31T04:38:57;22.85;;;18.95;;
20118;SDS011;10220;42.716;23.306;2022-07-31T04:41:23;21.25;;;19.05;;
20118;SDS011;10220;42.716;23.306;2022-07-31T04:43:49;21.15;;;18.90;;
20118;SDS011;10220;42.716;23.306;2022-07-31T04:46:15;20.38;;;18.25;;
20118;SDS011;10220;42.716;23.306;2022-07-31T04:48:40;22.23;;;19.92;;
20118;SDS011;10220;42.716;23.306;2022-07-31T04:51:05;20.83;;;18.70;;
20118;SDS011;10220;42.716;23.306;2022-07-31T04:53:31;21.40;;;18.58;;
20118;SDS011;10220;42.716;23.306;2022-07-31T04:55:56;20.50;;;18.40;;
20118;SDS011;10220;42.716;23.306;2022-07-31T04:58:40;21.75;;;19.45;;
20118;SDS011;10220;42.716;23.306;2022-07-31T05:01:05;21.10;;;19.00;;
20118;SDS011;10220;42.716;23.306;2022-07-31T05:03:31;20.13;;;18.13;;
20118;SDS011;10220;42.716;23.306;2022-07-31T05:06:06;21.98;;;19.75;;
20118;SDS011;10220;42.716;23.306;2022-07-31T05:08:33;19.77;;;17.83;;
20118;SDS011;10220;42.716;23.306;2022-07-31T05:10:58;21.00;;;18.80;;
20118;SDS011;10220;42.716;23.306;2022-07-31T05:13:42;19.85;;;17.85;;
20118;SDS011;10220;42.716;23.306;2022-07-31T05:16:10;20.38;;;18.27;;
20118;SDS011;10220;42.716;23.306;2022-07-31T05:18:36;19.80;;;17.88;;
20118;SDS011;10220;42.716;23.306;2022-07-31T05:21:01;19.75;;;17.80;;
20118;SDS011;10220;42.716;23.306;2022-07-31T05:23:27;18.65;;;16.63;;
20118;SDS011;10220;42.716;23.306;2022-07-31T05:25:52;17.88;;;16.15;;
20118;SDS011;10220;42.716;23.306;2022-07-31T05:28:18;17.38;;;15.77;;
20118;SDS011;10220;42.716;23.306;2022-07-31T05:30:43;16.40;;;15.00;;
20118;SDS011;10220;42.716;23.306;2022-07-31T05:33:09;16.88;;;15.38;;
20118;SDS011;10220;42.716;23.306;2022-07-31T05:35:34;15.65;;;14.15;;
20118;SDS011;10220;42.716;23.306;2022-07-31T05:38:00;15.18;;;13.77;;
20118;SDS011;10220;42.716;23.306;2022-07-31T05:40:25;15.20;;;13.90;;
20118;SDS011;10220;42.716;23.306;2022-07-31T05:42:50;16.05;;;14.57;;
20118;SDS011;10220;42.716;23.306;2022-07-31T05:45:16;17.20;;;15.38;;
20118;SDS011;10220;42.716;23.306;2022-07-31T05:47:42;15.73;;;14.32;;
20118;SDS011;10220;42.716;23.306;2022-07-31T05:50:07;15.23;;;13.77;;
20118;SDS011;10220;42.716;23.306;2022-07-31T05:52:33;13.70;;;12.30;;
20118;SDS011;10220;42.716;23.306;2022-07-31T05:54:58;13.98;;;12.77;;
20118;SDS011;10220;42.716;23.306;2022-07-31T05:57:24;15.02;;;13.65;;
20118;SDS011;10220;42.716;23.306;2022-07-31T05:59:49;15.27;;;13.82;;
20118;SDS011;10220;42.716;23.306;2022-07-31T06:02:15;16.48;;;14.95;;
20118;SDS011;10220;42.716;23.306;2022-07-31T06:04:40;15.70;;;14.15;;
20118;SDS011;10220;42.716;23.306;2022-07-31T06:07:05;14.15;;;12.93;;
20118;SDS011;10220;42.716;23.306;2022-07-31T06:09:31;13.10;;;11.75;;
20118;SDS011;10220;42.716;23.306;2022-07-31T06:11:56;12.65;;;11.40;;
20118;SDS011;10220;42.716;23.306;2022-07-31T06:14:22;22.80;;;20.67;;
20118;SDS011;10220;42.716;23.306;2022-07-31T06:16:47;15.75;;;14.18;;
20118;SDS011;10220;42.716;23.306;2022-07-31T06:19:14;21.98;;;19.75;;
20118;SDS011;10220;42.716;23.306;2022-07-31T06:21:40;14.07;;;12.70;;
20118;SDS011;10220;42.716;23.306;2022-07-31T06:24:05;14.32;;;13.02;;
20118;SDS011;10220;42.716;23.306;2022-07-31T06:26:31;15.55;;;14.15;;
20118;SDS011;10220;42.716;23.306;2022-07-31T06:28:57;14.43;;;13.02;;
20118;SDS011;10220;42.716;23.306;2022-07-31T06:31:22;17.42;;;15.68;;
20118;SDS011;10220;42.716;23.306;2022-07-31T06:33:48;19.60;;;17.80;;
20118;SDS011;10220;42.716;23.306;2022-07-31T06:36:14;20.42;;;18.55;;
20118;SDS011;10220;42.716;23.306;2022-07-31T06:38:40;14.93;;;13.68;;
20118;SDS011;10220;42.716;23.306;2022-07-31T06:41:06;14.85;;;13.35;;
20118;SDS011;10220;42.716;23.306;2022-07-31T06:43:31;15.73;;;14.32;;
20118;SDS011;10220;42.716;23.306;2022-07-31T06:45:57;16.95;;;15.35;;
20118;SDS011;10220;42.716;23.306;2022-07-31T06:48:22;15.25;;;13.82;;
20118;SDS011;10220;42.716;23.306;2022-07-31T06:50:47;16.02;;;14.38;;
20118;SDS011;10220;42.716;23.306;2022-07-31T06:53:13;17.45;;;15.70;;
20118;SDS011;10220;42.716;23.306;2022-07-31T06:55:38;15.93;;;14.35;;
20118;SDS011;10220;42.716;23.306;2022-07-31T06:58:04;16.17;;;14.38;;
20118;SDS011;10220;42.716;23.306;2022-07-31T07:00:29;29.50;;;26.40;;
20118;SDS011;10220;42.716;23.306;2022-07-31T07:02:55;16.10;;;14.60;;
20118;SDS011;10220;42.716;23.306;2022-07-31T07:05:20;65.07;;;51.95;;
20118;SDS011;10220;42.716;23.306;2022-07-31T07:07:46;20.48;;;18.42;;
20118;SDS011;10220;42.716;23.306;2022-07-31T07:10:11;49.95;;;44.53;;
20118;SDS011;10220;42.716;23.306;2022-07-31T07:12:37;36.70;;;32.83;;
20118;SDS011;10220;42.716;23.306;2022-07-31T07:15:03;27.85;;;24.95;;
20118;SDS011;10220;42.716;23.306;2022-07-31T07:17:28;14.57;;;13.18;;
20118;SDS011;10220;42.716;23.306;2022-07-31T07:19:54;18.98;;;17.17;;
20118;SDS011;10220;42.716;23.306;2022-07-31T07:22:20;18.73;;;16.92;;
20118;SDS011;10220;42.716;23.306;2022-07-31T07:24:46;23.30;;;20.90;;
20118;SDS011;10220;42.716;23.306;2022-07-31T07:27:11;19.10;;;17.20;;
20118;SDS011;10220;42.716;23.306;2022-07-31T07:29:37;17.88;;;16.17;;
20118;SDS011;10220;42.716;23.306;2022-07-31T07:32:02;29.20;;;26.20;;
20118;SDS011;10220;42.716;23.306;2022-07-31T07:34:28;21.15;;;19.20;;
20118;SDS011;10220;42.716;23.306;2022-07-31T07:36:53;20.92;;;18.88;;
20118;SDS011;10220;42.716;23.306;2022-07-31T07:39:19;18.63;;;16.70;;
20118;SDS011;10220;42.716;23.306;2022-07-31T07:41:45;21.25;;;18.80;;
20118;SDS011;10220;42.716;23.306;2022-07-31T07:44:10;19.13;;;17.23;;
20118;SDS011;10220;42.716;23.306;2022-07-31T07:46:36;21.42;;;19.08;;
20118;SDS011;10220;42.716;23.306;2022-07-31T07:49:02;18.90;;;16.98;;
20118;SDS011;10220;42.716;23.306;2022-07-31T07:51:28;19.25;;;16.58;;
20118;SDS011;10220;42.716;23.306;2022-07-31T07:53:53;42.15;;;34.20;;
20118;SDS011;10220;42.716;23.306;2022-07-31T07:56:19;21.05;;;15.55;;
20118;SDS011;10220;42.716;23.306;2022-07-31T07:58:44;21.95;;;19.17;;
20118;SDS011;10220;42.716;23.306;2022-07-31T08:01:10;17.90;;;16.00;;
20118;SDS011;10220;42.716;23.306;2022-07-31T08:03:35;17.35;;;15.63;;
20118;SDS011;10220;42.716;23.306;2022-07-31T08:06:01;14.63;;;13.13;;
20118;SDS011;10220;42.716;23.306;2022-07-31T08:08:26;24.23;;;21.75;;
20118;SDS011;10220;42.716;23.306;2022-07-31T08:10:52;14.68;;;13.18;;
20118;SDS011;10220;42.716;23.306;2022-07-31T08:13:17;15.40;;;13.30;;
20118;SDS011;10220;42.716;23.306;2022-07-31T08:15:43;13.50;;;12.13;;
20118;SDS011;10220;42.716;23.306;2022-07-31T08:18:09;12.18;;;10.98;;
20118;SDS011;10220;42.716;23.306;2022-07-31T08:20:37;12.95;;;11.63;;
20118;SDS011;10220;42.716;23.306;2022-07-31T08:23:03;13.90;;;12.60;;
20118;SDS011;10220;42.716;23.306;2022-07-31T08:25:28;13.05;;;11.80;;
20118;SDS011;10220;42.716;23.306;2022-07-31T08:27:54;18.95;;;16.95;;
20118;SDS011;10220;42.716;23.306;2022-07-31T08:30:19;14.23;;;12.95;;
20118;SDS011;10220;42.716;23.306;2022-07-31T08:32:45;12.98;;;11.75;;
20118;SDS011;10220;42.716;23.306;2022-07-31T08:35:10;13.77;;;12.40;;
20118;SDS011;10220;42.716;23.306;2022-07-31T08:37:36;11.55;;;10.25;;
20118;SDS011;10220;42.716;23.306;2022-07-31T08:40:02;13.45;;;11.95;;
20118;SDS011;10220;42.716;23.306;2022-07-31T08:42:27;13.68;;;12.27;;
20118;SDS011;10220;42.716;23.306;2022-07-31T08:44:56;12.88;;;11.65;;
20118;SDS011;10220;42.716;23.306;2022-07-31T08:47:21;11.80;;;10.63;;
20118;SDS011;10220;42.716;23.306;2022-07-31T08:49:49;10.98;;;9.98;;
20118;SDS011;10220;42.716;23.306;2022-07-31T08:52:19;11.10;;;10.10;;
20118;SDS011;10220;42.716;23.306;2022-07-31T08:54:48;11.65;;;10.25;;
20118;SDS011;10220;42.716;23.306;2022-07-31T08:57:16;18.75;;;16.90;;
20118;SDS011;10220;42.716;23.306;2022-07-31T08:59:41;11.43;;;10.27;;
20118;SDS011;10220;42.716;23.306;2022-07-31T09:02:08;10.98;;;9.88;;
20118;SDS011;10220;42.716;23.306;2022-07-31T09:04:34;11.40;;;10.40;;
20118;SDS011;10220;42.716;23.306;2022-07-31T09:07:00;12.85;;;11.65;;
20118;SDS011;10220;42.716;23.306;2022-07-31T09:09:26;11.70;;;10.50;;
20118;SDS011;10220;42.716;23.306;2022-07-31T09:11:52;12.45;;;11.25;;
20118;SDS011;10220;42.716;23.306;2022-07-31T09:14:29;14.20;;;12.85;;
20118;SDS011;10220;42.716;23.306;2022-07-31T09:16:59;14.13;;;12.63;;
20118;SDS011;10220;42.716;23.306;2022-07-31T09:19:36;14.40;;;13.05;;
20118;SDS011;10220;42.716;23.306;2022-07-31T09:22:01;16.73;;;15.23;;
20118;SDS011;10220;42.716;23.306;2022-07-31T09:24:28;14.80;;;13.32;;
20118;SDS011;10220;42.716;23.306;2022-07-31T09:27:05;16.67;;;15.13;;
20118;SDS011;10220;42.716;23.306;2022-07-31T09:29:36;14.35;;;12.90;;
20118;SDS011;10220;42.716;23.306;2022-07-31T09:32:06;17.55;;;15.85;;
20118;SDS011;10220;42.716;23.306;2022-07-31T09:34:36;16.80;;;15.20;;
20118;SDS011;10220;42.716;23.306;2022-07-31T09:37:08;17.73;;;15.93;;
20118;SDS011;10220;42.716;23.306;2022-07-31T09:39:35;18.67;;;16.67;;
20118;SDS011;10220;42.716;23.306;2022-07-31T09:42:01;18.05;;;16.23;;
20118;SDS011;10220;42.716;23.306;2022-07-31T09:45:00;23.42;;;20.98;;
20118;SDS011;10220;42.716;23.306;2022-07-31T09:47:22;34.05;;;30.42;;
20118;SDS011;10220;42.716;23.306;2022-07-31T09:49:51;19.10;;;17.13;;
20118;SDS011;10220;42.716;23.306;2022-07-31T09:52:18;17.60;;;15.90;;
20118;SDS011;10220;42.716;23.306;2022-07-31T09:54:44;17.63;;;15.80;;
20118;SDS011;10220;42.716;23.306;2022-07-31T09:57:10;18.10;;;16.45;;
20118;SDS011;10220;42.716;23.306;2022-07-31T09:59:37;16.77;;;15.23;;
20118;SDS011;10220;42.716;23.306;2022-07-31T10:02:02;18.55;;;16.83;;
20118;SDS011;10220;42.716;23.306;2022-07-31T10:04:29;18.58;;;16.80;;
20118;SDS011;10220;42.716;23.306;2022-07-31T10:06:56;16.88;;;15.27;;
20118;SDS011;10220;42.716;23.306;2022-07-31T10:09:22;18.30;;;16.50;;
20118;SDS011;10220;42.716;23.306;2022-07-31T10:11:49;18.25;;;16.45;;
20118;SDS011;10220;42.716;23.306;2022-07-31T10:14:20;18.23;;;16.52;;
20118;SDS011;10220;42.716;23.306;2022-07-31T10:16:51;20.63;;;18.63;;
20118;SDS011;10220;42.716;23.306;2022-07-31T10:19:20;20.15;;;18.27;;
20118;SDS011;10220;42.716;23.306;2022-07-31T10:21:49;19.92;;;17.95;;
20118;SDS011;10220;42.716;23.306;2022-07-31T10:24:20;20.77;;;18.70;;
20118;SDS011;10220;42.716;23.306;2022-07-31T10:26:47;13.85;;;12.65;;
20118;SDS011;10220;42.716;23.306;2022-07-31T10:29:14;12.73;;;11.63;;
20118;SDS011;10220;42.716;23.306;2022-07-31T10:31:42;11.95;;;10.88;;
20118;SDS011;10220;42.716;23.306;2022-07-31T10:34:10;13.07;;;11.77;;
20118;SDS011;10220;42.716;23.306;2022-07-31T10:36:38;13.68;;;12.27;;
20118;SDS011;10220;42.716;23.306;2022-07-31T10:39:13;12.95;;;11.85;;
20118;SDS011;10220;42.716;23.306;2022-07-31T10:44:40;12.50;;;11.27;;
20118;SDS011;10220;42.716;23.306;2022-07-31T10:47:13;13.43;;;12.20;;
20118;SDS011;10220;42.716;23.306;2022-07-31T10:49:44;16.25;;;14.85;;
20118;SDS011;10220;42.716;23.306;2022-07-31T10:52:12;13.77;;;12.57;;
20118;SDS011;10220;42.716;23.306;2022-07-31T10:54:40;12.57;;;11.38;;
20118;SDS011;10220;42.716;23.306;2022-07-31T10:57:06;12.10;;;11.10;;
20118;SDS011;10220;42.716;23.306;2022-07-31T10:59:32;11.20;;;10.18;;
20118;SDS011;10220;42.716;23.306;2022-07-31T11:01:57;11.55;;;10.45;;
20118;SDS011;10220;42.716;23.306;2022-07-31T11:04:27;18.23;;;16.58;;
20118;SDS011;10220;42.716;23.306;2022-07-31T11:06:56;13.63;;;12.35;;
20118;SDS011;10220;42.716;23.306;2022-07-31T11:09:23;19.67;;;17.77;;
20118;SDS011;10220;42.716;23.306;2022-07-31T11:11:50;26.40;;;23.92;;
20118;SDS011;10220;42.716;23.306;2022-07-31T11:14:16;11.65;;;10.65;;
20118;SDS011;10220;42.716;23.306;2022-07-31T11:16:53;14.25;;;11.32;;
20118;SDS011;10220;42.716;23.306;2022-07-31T11:19:19;22.10;;;20.10;;
20118;SDS011;10220;42.716;23.306;2022-07-31T11:21:45;13.35;;;12.30;;
20118;SDS011;10220;42.716;23.306;2022-07-31T11:26:47;20.85;;;19.00;;
20118;SDS011;10220;42.716;23.306;2022-07-31T11:31:59;14.95;;;13.65;;
20118;SDS011;10220;42.716;23.306;2022-07-31T11:34:25;13.27;;;12.05;;
20118;SDS011;10220;42.716;23.306;2022-07-31T11:36:51;12.68;;;11.48;;
20118;SDS011;10220;42.716;23.306;2022-07-31T11:39:16;12.95;;;11.85;;
20118;SDS011;10220;42.716;23.306;2022-07-31T11:41:42;13.18;;;12.10;;
20118;SDS011;10220;42.716;23.306;2022-07-31T11:44:07;13.35;;;12.25;;
20118;SDS011;10220;42.716;23.306;2022-07-31T11:46:33;13.38;;;12.18;;
20118;SDS011;10220;42.716;23.306;2022-07-31T11:48:59;12.45;;;11.43;;
20118;SDS011;10220;42.716;23.306;2022-07-31T11:51:26;12.63;;;11.63;;
20118;SDS011;10220;42.716;23.306;2022-07-31T11:53:52;12.10;;;10.93;;
20118;SDS011;10220;42.716;23.306;2022-07-31T11:56:21;10.88;;;9.85;;
20118;SDS011;10220;42.716;23.306;2022-07-31T11:58:55;11.63;;;10.55;;
20118;SDS011;10220;42.716;23.306;2022-07-31T12:01:25;11.15;;;10.32;;
20118;SDS011;10220;42.716;23.306;2022-07-31T12:03:52;11.32;;;10.48;;
20118;SDS011;10220;42.716;23.306;2022-07-31T12:06:19;12.57;;;11.38;;
20118;SDS011;10220;42.716;23.306;2022-07-31T12:08:48;12.27;;;11.38;;
20118;SDS011;10220;42.716;23.306;2022-07-31T12:11:16;12.98;;;11.82;;
20118;SDS011;10220;42.716;23.306;2022-07-31T12:13:46;11.65;;;10.75;;
20118;SDS011;10220;42.716;23.306;2022-07-31T12:16:13;12.35;;;11.40;;
20118;SDS011;10220;42.716;23.306;2022-07-31T12:18:47;11.73;;;10.82;;
20118;SDS011;10220;42.716;23.306;2022-07-31T12:21:28;11.90;;;10.90;;
20118;SDS011;10220;42.716;23.306;2022-07-31T12:24:11;11.80;;;10.70;;
20118;SDS011;10220;42.716;23.306;2022-07-31T12:26:37;11.23;;;10.35;;
20118;SDS011;10220;42.716;23.306;2022-07-31T12:29:07;11.00;;;10.00;;
20118;SDS011;10220;42.716;23.306;2022-07-31T12:31:44;9.95;;;9.15;;
20118;SDS011;10220;42.716;23.306;2022-07-31T12:34:30;9.20;;;8.40;;
20118;SDS011;10220;42.716;23.306;2022-07-31T12:39:37;8.68;;;7.97;;
20118;SDS011;10220;42.716;23.306;2022-07-31T12:42:29;9.23;;;8.52;;
20118;SDS011;10220;42.716;23.306;2022-07-31T12:44:56;9.80;;;9.00;;
20118;SDS011;10220;42.716;23.306;2022-07-31T12:47:24;9.65;;;8.88;;
20118;SDS011;10220;42.716;23.306;2022-07-31T12:49:52;10.05;;;9.23;;
20118;SDS011;10220;42.716;23.306;2022-07-31T12:52:18;10.18;;;9.38;;
20118;SDS011;10220;42.716;23.306;2022-07-31T12:54:44;10.73;;;9.93;;
20118;SDS011;10220;42.716;23.306;2022-07-31T12:57:10;11.20;;;10.20;;
20118;SDS011;10220;42.716;23.306;2022-07-31T12:59:36;11.30;;;10.30;;
20118;SDS011;10220;42.716;23.306;2022-07-31T13:02:02;11.43;;;10.45;;
20118;SDS011;10220;42.716;23.306;2022-07-31T13:04:28;10.73;;;9.73;;
20118;SDS011;10220;42.716;23.306;2022-07-31T13:06:54;10.70;;;9.90;;
20118;SDS011;10220;42.716;23.306;2022-07-31T13:09:19;11.07;;;10.07;;
20118;SDS011;10220;42.716;23.306;2022-07-31T13:11:45;11.10;;;10.20;;
20118;SDS011;10220;42.716;23.306;2022-07-31T13:14:10;11.93;;;10.82;;
20118;SDS011;10220;42.716;23.306;2022-07-31T13:16:36;11.27;;;10.38;;
20118;SDS011;10220;42.716;23.306;2022-07-31T13:19:01;11.80;;;10.90;;
20118;SDS011;10220;42.716;23.306;2022-07-31T13:21:27;10.60;;;9.70;;
20118;SDS011;10220;42.716;23.306;2022-07-31T13:23:53;9.32;;;8.50;;
20118;SDS011;10220;42.716;23.306;2022-07-31T13:26:19;9.23;;;8.48;;
20118;SDS011;10220;42.716;23.306;2022-07-31T13:28:44;10.15;;;9.20;;
20118;SDS011;10220;42.716;23.306;2022-07-31T13:31:10;9.40;;;8.63;;
20118;SDS011;10220;42.716;23.306;2022-07-31T13:33:35;10.65;;;9.70;;
20118;SDS011;10220;42.716;23.306;2022-07-31T13:36:01;10.63;;;9.73;;
20118;SDS011;10220;42.716;23.306;2022-07-31T13:38:27;11.07;;;10.23;;
20118;SDS011;10220;42.716;23.306;2022-07-31T13:40:52;11.07;;;10.18;;
20118;SDS011;10220;42.716;23.306;2022-07-31T13:43:36;11.60;;;10.70;;
20118;SDS011;10220;42.716;23.306;2022-07-31T13:46:02;11.68;;;10.68;;
20118;SDS011;10220;42.716;23.306;2022-07-31T13:48:28;11.93;;;11.02;;
20118;SDS011;10220;42.716;23.306;2022-07-31T13:50:53;11.77;;;10.93;;
20118;SDS011;10220;42.716;23.306;2022-07-31T13:53:19;11.88;;;10.98;;
20118;SDS011;10220;42.716;23.306;2022-07-31T13:55:44;12.10;;;11.20;;
20118;SDS011;10220;42.716;23.306;2022-07-31T13:58:10;11.13;;;10.23;;
20118;SDS011;10220;42.716;23.306;2022-07-31T14:00:35;11.25;;;10.35;;
20118;SDS011;10220;42.716;23.306;2022-07-31T14:03:01;10.32;;;9.43;;
20118;SDS011;10220;42.716;23.306;2022-07-31T14:05:26;9.43;;;8.73;;
20118;SDS011;10220;42.716;23.306;2022-07-31T14:07:52;9.68;;;8.88;;
20118;SDS011;10220;42.716;23.306;2022-07-31T14:10:18;8.90;;;8.13;;
20118;SDS011;10220;42.716;23.306;2022-07-31T14:12:43;9.70;;;8.88;;
20118;SDS011;10220;42.716;23.306;2022-07-31T14:15:09;9.52;;;8.75;;
20118;SDS011;10220;42.716;23.306;2022-07-31T14:17:34;9.93;;;9.23;;
20118;SDS011;10220;42.716;23.306;2022-07-31T14:20:00;9.80;;;9.02;;
20118;SDS011;10220;42.716;23.306;2022-07-31T14:22:26;9.23;;;8.52;;
20118;SDS011;10220;42.716;23.306;2022-07-31T14:24:52;10.73;;;9.93;;
20118;SDS011;10220;42.716;23.306;2022-07-31T14:27:18;10.55;;;9.75;;